sensor_id;sensor_type;location;lat;lon;timestamp;pressure;altitude;pressure_sealevel;temperature;humidity
46211;BME280;52144;48.040;-1.594;2023-02-13T00:00:52;102779.06;;;6.95;95.07
46211;BME280;52144;48.040;-1.594;2023-02-13T00:03:20;102785.25;;;7.08;92.56
46211;BME280;52144;48.040;-1.594;2023-02-13T00:05:47;102779.94;;;6.99;90.16
46211;BME280;52144;48.040;-1.594;2023-02-13T00:08:15;102784.38;;;6.97;90.92
46211;BME280;52144;48.040;-1.594;2023-02-13T00:10:45;102784.31;;;6.81;89.77
46211;BME280;52144;48.040;-1.594;2023-02-13T00:13:13;102779.88;;;6.70;90.61
46211;BME280;52144;48.040;-1.594;2023-02-13T00:15:41;102778.13;;;6.72;91.23
46211;BME280;52144;48.040;-1.594;2023-02-13T00:18:09;102776.34;;;6.66;90.75
46211;BME280;52144;48.040;-1.594;2023-02-13T00:20:37;102773.25;;;5.88;93.83
46211;BME280;52144;48.040;-1.594;2023-02-13T00:23:04;102780.13;;;5.56;96.67
46211;BME280;52144;48.040;-1.594;2023-02-13T00:25:32;102777.66;;;5.86;96.08
46211;BME280;52144;48.040;-1.594;2023-02-13T00:28:01;102776.91;;;5.99;93.82
46211;BME280;52144;48.040;-1.594;2023-02-13T00:30:29;102779.44;;;5.85;94.30
46211;BME280;52144;48.040;-1.594;2023-02-13T00:32:57;102772.38;;;5.86;96.68
46211;BME280;52144;48.040;-1.594;2023-02-13T00:35:25;102770.50;;;5.69;97.72
46211;BME280;52144;48.040;-1.594;2023-02-13T00:37:52;102768.00;;;5.89;98.08
46211;BME280;52144;48.040;-1.594;2023-02-13T00:40:20;102766.41;;;6.16;96.15
46211;BME280;52144;48.040;-1.594;2023-02-13T00:42:48;102771.50;;;5.88;96.02
46211;BME280;52144;48.040;-1.594;2023-02-13T00:45:17;102765.25;;;5.75;96.29
46211;BME280;52144;48.040;-1.594;2023-02-13T00:47:45;102767.25;;;6.07;97.23
46211;BME280;52144;48.040;-1.594;2023-02-13T00:50:13;102766.34;;;6.00;96.28
46211;BME280;52144;48.040;-1.594;2023-02-13T00:52:40;102760.75;;;5.60;97.43
46211;BME280;52144;48.040;-1.594;2023-02-13T00:55:08;102756.34;;;5.58;100.00
46211;BME280;52144;48.040;-1.594;2023-02-13T00:57:36;102750.88;;;5.38;100.00
46211;BME280;52144;48.040;-1.594;2023-02-13T01:00:05;102758.03;;;5.53;100.00
46211;BME280;52144;48.040;-1.594;2023-02-13T01:02:34;102757.16;;;5.55;100.00
46211;BME280;52144;48.040;-1.594;2023-02-13T01:05:02;102749.25;;;5.57;100.00
46211;BME280;52144;48.040;-1.594;2023-02-13T01:07:32;102741.22;;;5.41;100.00
46211;BME280;52144;48.040;-1.594;2023-02-13T01:10:00;102741.22;;;5.43;100.00
46211;BME280;52144;48.040;-1.594;2023-02-13T01:12:27;102745.72;;;5.55;100.00
46211;BME280;52144;48.040;-1.594;2023-02-13T01:14:55;102741.34;;;5.61;100.00
46211;BME280;52144;48.040;-1.594;2023-02-13T01:17:23;102747.44;;;5.48;100.00
46211;BME280;52144;48.040;-1.594;2023-02-13T01:19:53;102754.38;;;5.37;100.00
46211;BME280;52144;48.040;-1.594;2023-02-13T01:22:21;102748.34;;;5.50;100.00
46211;BME280;52144;48.040;-1.594;2023-02-13T01:24:48;102753.78;;;5.73;100.00
46211;BME280;52144;48.040;-1.594;2023-02-13T01:27:16;102754.69;;;5.80;100.00
46211;BME280;52144;48.040;-1.594;2023-02-13T01:29:44;102749.50;;;5.91;100.00
46211;BME280;52144;48.040;-1.594;2023-02-13T01:32:12;102751.03;;;5.58;100.00
46211;BME280;52144;48.040;-1.594;2023-02-13T01:34:40;102755.50;;;5.67;100.00
46211;BME280;52144;48.040;-1.594;2023-02-13T01:37:09;102752.00;;;5.71;100.00
46211;BME280;52144;48.040;-1.594;2023-02-13T01:39:37;102744.94;;;5.71;100.00
46211;BME280;52144;48.040;-1.594;2023-02-13T01:42:05;102747.63;;;5.74;100.00
46211;BME280;52144;48.040;-1.594;2023-02-13T01:44:46;102752.13;;;5.89;98.82
46211;BME280;52144;48.040;-1.594;2023-02-13T01:47:17;102749.38;;;5.72;99.23
46211;BME280;52144;48.040;-1.594;2023-02-13T01:49:48;102752.97;;;5.80;98.80
46211;BME280;52144;48.040;-1.594;2023-02-13T01:52:18;102748.44;;;5.66;99.53
46211;BME280;52144;48.040;-1.594;2023-02-13T01:54:46;102746.53;;;5.46;100.00
46211;BME280;52144;48.040;-1.594;2023-02-13T01:57:17;102743.13;;;5.62;100.00
46211;BME280;52144;48.040;-1.594;2023-02-13T01:59:51;102749.41;;;5.77;99.54
46211;BME280;52144;48.040;-1.594;2023-02-13T02:02:20;102746.69;;;5.68;100.00
46211;BME280;52144;48.040;-1.594;2023-02-13T02:04:49;102750.03;;;5.42;100.00
46211;BME280;52144;48.040;-1.594;2023-02-13T02:07:22;102751.97;;;5.65;100.00
46211;BME280;52144;48.040;-1.594;2023-02-13T02:09:52;102743.94;;;5.55;99.68
46211;BME280;52144;48.040;-1.594;2023-02-13T02:12:25;102746.66;;;5.60;100.00
46211;BME280;52144;48.040;-1.594;2023-02-13T02:14:55;102743.88;;;5.41;100.00
46211;BME280;52144;48.040;-1.594;2023-02-13T02:17:26;102736.03;;;5.58;100.00
46211;BME280;52144;48.040;-1.594;2023-02-13T02:20:03;102735.97;;;5.46;100.00
46211;BME280;52144;48.040;-1.594;2023-02-13T02:23:13;102724.34;;;5.29;100.00
46211;BME280;52144;48.040;-1.594;2023-02-13T02:28:55;102726.09;;;5.23;100.00
46211;BME280;52144;48.040;-1.594;2023-02-13T02:31:59;102716.41;;;5.24;100.00
46211;BME280;52144;48.040;-1.594;2023-02-13T02:34:35;102719.03;;;5.22;100.00
46211;BME280;52144;48.040;-1.594;2023-02-13T02:37:14;102724.34;;;5.29;100.00
46211;BME280;52144;48.040;-1.594;2023-02-13T02:39:51;102719.00;;;5.19;100.00
46211;BME280;52144;48.040;-1.594;2023-02-13T02:42:27;102713.63;;;5.07;100.00
46211;BME280;52144;48.040;-1.594;2023-02-13T02:45:04;102712.66;;;5.00;100.00
46211;BME280;52144;48.040;-1.594;2023-02-13T02:47:41;102708.28;;;5.01;100.00
46211;BME280;52144;48.040;-1.594;2023-02-13T02:50:33;102701.22;;;5.00;100.00
46211;BME280;52144;48.040;-1.594;2023-02-13T02:53:09;102709.28;;;5.18;100.00
46211;BME280;52144;48.040;-1.594;2023-02-13T02:55:43;102711.91;;;5.17;100.00
46211;BME280;52144;48.040;-1.594;2023-02-13T02:58:18;102710.97;;;5.07;100.00
46211;BME280;52144;48.040;-1.594;2023-02-13T03:01:06;102705.75;;;5.13;100.00
46211;BME280;52144;48.040;-1.594;2023-02-13T03:03:56;102710.13;;;5.10;100.00
46211;BME280;52144;48.040;-1.594;2023-02-13T03:06:45;102705.69;;;5.09;100.00
46211;BME280;52144;48.040;-1.594;2023-02-13T03:09:19;102706.53;;;5.03;100.00
46211;BME280;52144;48.040;-1.594;2023-02-13T03:12:07;102703.72;;;4.85;100.00
46211;BME280;52144;48.040;-1.594;2023-02-13T03:14:53;102703.00;;;5.04;100.00
46211;BME280;52144;48.040;-1.594;2023-02-13T03:17:21;102703.84;;;5.00;100.00
46211;BME280;52144;48.040;-1.594;2023-02-13T03:20:22;102704.88;;;5.16;100.00
46211;BME280;52144;48.040;-1.594;2023-02-13T03:23:16;102710.16;;;5.16;100.00
46211;BME280;52144;48.040;-1.594;2023-02-13T03:26:00;102712.59;;;4.94;100.00
46211;BME280;52144;48.040;-1.594;2023-02-13T03:28:37;102707.28;;;4.90;100.00
46211;BME280;52144;48.040;-1.594;2023-02-13T03:31:31;102704.56;;;4.79;100.00
46211;BME280;52144;48.040;-1.594;2023-02-13T03:34:04;102696.47;;;4.62;100.00
46211;BME280;52144;48.040;-1.594;2023-02-13T03:36:42;102692.34;;;4.93;100.00
46211;BME280;52144;48.040;-1.594;2023-02-13T03:39:42;102696.78;;;4.96;100.00
46211;BME280;52144;48.040;-1.594;2023-02-13T03:42:17;102702.16;;;5.08;100.00
46211;BME280;52144;48.040;-1.594;2023-02-13T03:44:52;102704.84;;;5.14;100.00
46211;BME280;52144;48.040;-1.594;2023-02-13T03:47:36;102701.47;;;5.31;100.00
46211;BME280;52144;48.040;-1.594;2023-02-13T03:50:07;102704.06;;;5.21;98.62
46211;BME280;52144;48.040;-1.594;2023-02-13T03:52:40;102698.75;;;5.21;99.40
46211;BME280;52144;48.040;-1.594;2023-02-13T03:55:12;102697.97;;;5.35;98.64
46211;BME280;52144;48.040;-1.594;2023-02-13T03:58:01;102700.56;;;5.26;98.66
46211;BME280;52144;48.040;-1.594;2023-02-13T04:00:51;102692.63;;;5.26;98.71
46211;BME280;52144;48.040;-1.594;2023-02-13T04:03:23;102696.00;;;5.11;99.37
46211;BME280;52144;48.040;-1.594;2023-02-13T04:05:58;102695.25;;;5.24;99.26
46211;BME280;52144;48.040;-1.594;2023-02-13T04:08:30;102691.75;;;5.28;99.05
46211;BME280;52144;48.040;-1.594;2023-02-13T04:11:02;102699.63;;;5.17;98.81
46211;BME280;52144;48.040;-1.594;2023-02-13T04:13:35;102701.47;;;5.32;97.96
46211;BME280;52144;48.040;-1.594;2023-02-13T04:16:09;102688.31;;;5.40;97.75
46211;BME280;52144;48.040;-1.594;2023-02-13T04:18:38;102702.31;;;5.27;96.28
46211;BME280;52144;48.040;-1.594;2023-02-13T04:21:06;102695.09;;;5.06;97.63
46211;BME280;52144;48.040;-1.594;2023-02-13T04:23:36;102701.25;;;5.06;97.69
46211;BME280;52144;48.040;-1.594;2023-02-13T04:26:06;102705.63;;;5.01;98.26
46211;BME280;52144;48.040;-1.594;2023-02-13T04:28:35;102709.28;;;5.18;98.19
46211;BME280;52144;48.040;-1.594;2023-02-13T04:31:03;102710.16;;;5.16;98.21
46211;BME280;52144;48.040;-1.594;2023-02-13T04:33:31;102719.03;;;5.24;97.08
46211;BME280;52144;48.040;-1.594;2023-02-13T04:35:59;102723.38;;;5.19;96.34
46211;BME280;52144;48.040;-1.594;2023-02-13T04:38:26;102717.16;;;5.11;95.34
46211;BME280;52144;48.040;-1.594;2023-02-13T04:40:56;102716.22;;;5.04;95.98
46211;BME280;52144;48.040;-1.594;2023-02-13T04:43:24;102710.06;;;5.03;96.44
46211;BME280;52144;48.040;-1.594;2023-02-13T04:45:52;102714.28;;;4.83;96.75
46211;BME280;52144;48.040;-1.594;2023-02-13T04:48:20;102715.97;;;4.76;97.29
46211;BME280;52144;48.040;-1.594;2023-02-13T04:50:47;102707.88;;;4.61;97.35
46211;BME280;52144;48.040;-1.594;2023-02-13T04:53:15;102707.03;;;4.62;98.78
46211;BME280;52144;48.040;-1.594;2023-02-13T04:55:43;102707.03;;;4.65;98.06
46211;BME280;52144;48.040;-1.594;2023-02-13T04:58:12;102700.81;;;4.58;98.68
46211;BME280;52144;48.040;-1.594;2023-02-13T05:00:40;102693.66;;;4.47;99.86
46211;BME280;52144;48.040;-1.594;2023-02-13T05:03:10;102697.13;;;4.42;99.76
46211;BME280;52144;48.040;-1.594;2023-02-13T05:05:38;102694.38;;;4.33;100.00
46211;BME280;52144;48.040;-1.594;2023-02-13T05:08:07;102693.50;;;4.33;100.00
46211;BME280;52144;48.040;-1.594;2023-02-13T05:10:35;102696.03;;;4.25;100.00
46211;BME280;52144;48.040;-1.594;2023-02-13T05:13:03;102699.72;;;4.38;100.00
46211;BME280;52144;48.040;-1.594;2023-02-13T05:15:32;102702.47;;;4.49;100.00
46211;BME280;52144;48.040;-1.594;2023-02-13T05:18:00;102699.72;;;4.39;100.00
46211;BME280;52144;48.040;-1.594;2023-02-13T05:20:28;102697.09;;;4.41;98.88
46211;BME280;52144;48.040;-1.594;2023-02-13T05:22:55;102705.06;;;4.46;98.97
46211;BME280;52144;48.040;-1.594;2023-02-13T05:25:41;102704.38;;;4.60;97.90
46211;BME280;52144;48.040;-1.594;2023-02-13T05:28:09;102702.63;;;4.66;97.53
46211;BME280;52144;48.040;-1.594;2023-02-13T05:31:11;102702.34;;;4.39;98.54
46211;BME280;52144;48.040;-1.594;2023-02-13T05:33:39;102700.84;;;4.60;98.45
46211;BME280;52144;48.040;-1.594;2023-02-13T05:36:07;102699.81;;;4.47;98.05
46211;BME280;52144;48.040;-1.594;2023-02-13T05:38:35;102693.53;;;4.36;98.88
46211;BME280;52144;48.040;-1.594;2023-02-13T05:41:03;102690.88;;;4.37;98.87
46211;BME280;52144;48.040;-1.594;2023-02-13T05:43:31;102693.50;;;4.34;98.79
46211;BME280;52144;48.040;-1.594;2023-02-13T05:46:03;102695.31;;;4.38;99.24
46211;BME280;52144;48.040;-1.594;2023-02-13T05:48:32;102698.03;;;4.48;99.16
46211;BME280;52144;48.040;-1.594;2023-02-13T05:51:00;102695.38;;;4.43;98.56
46211;BME280;52144;48.040;-1.594;2023-02-13T05:53:28;102699.84;;;4.52;98.90
46211;BME280;52144;48.040;-1.594;2023-02-13T05:55:56;102696.19;;;4.39;99.47
46211;BME280;52144;48.040;-1.594;2023-02-13T05:58:24;102700.75;;;4.54;98.83
46211;BME280;52144;48.040;-1.594;2023-02-13T06:00:54;102700.00;;;4.64;97.89
46211;BME280;52144;48.040;-1.594;2023-02-13T06:03:23;102704.38;;;4.62;97.69
46211;BME280;52144;48.040;-1.594;2023-02-13T06:05:53;102703.50;;;4.60;98.33
46211;BME280;52144;48.040;-1.594;2023-02-13T06:08:21;102704.31;;;4.57;98.73
46211;BME280;52144;48.040;-1.594;2023-02-13T06:10:49;102700.84;;;4.60;99.38
46211;BME280;52144;48.040;-1.594;2023-02-13T06:13:17;102710.66;;;4.73;98.49
46211;BME280;52144;48.040;-1.594;2023-02-13T06:15:45;102703.31;;;4.48;98.89
46211;BME280;52144;48.040;-1.594;2023-02-13T06:18:13;102698.78;;;4.34;100.00
46211;BME280;52144;48.040;-1.594;2023-02-13T06:20:41;102699.50;;;4.21;100.00
46211;BME280;52144;48.040;-1.594;2023-02-13T06:23:10;102704.59;;;4.06;100.00
46211;BME280;52144;48.040;-1.594;2023-02-13T06:25:38;102707.16;;;3.99;100.00
46211;BME280;52144;48.040;-1.594;2023-02-13T06:28:06;102714.28;;;4.05;100.00
46211;BME280;52144;48.040;-1.594;2023-02-13T06:30:34;102706.53;;;4.17;100.00
46211;BME280;52144;48.040;-1.594;2023-02-13T06:33:02;102708.97;;;4.04;100.00
46211;BME280;52144;48.040;-1.594;2023-02-13T06:35:31;102703.88;;;4.17;100.00
46211;BME280;52144;48.040;-1.594;2023-02-13T06:37:58;102711.88;;;4.25;100.00
46211;BME280;52144;48.040;-1.594;2023-02-13T06:40:28;102717.91;;;4.13;100.00
46211;BME280;52144;48.040;-1.594;2023-02-13T06:42:55;102716.25;;;4.23;100.00
46211;BME280;52144;48.040;-1.594;2023-02-13T06:45:23;102720.16;;;4.54;100.00
46211;BME280;52144;48.040;-1.594;2023-02-13T06:47:51;102728.06;;;4.54;100.00
46211;BME280;52144;48.040;-1.594;2023-02-13T06:50:19;102726.22;;;4.49;100.00
46211;BME280;52144;48.040;-1.594;2023-02-13T06:52:48;102737.44;;;4.31;100.00
46211;BME280;52144;48.040;-1.594;2023-02-13T06:55:16;102734.91;;;4.38;100.00
46211;BME280;52144;48.040;-1.594;2023-02-13T06:57:46;102740.28;;;4.48;100.00
46211;BME280;52144;48.040;-1.594;2023-02-13T07:00:15;102740.47;;;4.60;100.00
46211;BME280;52144;48.040;-1.594;2023-02-13T07:02:45;102729.63;;;4.38;100.00
46211;BME280;52144;48.040;-1.594;2023-02-13T07:05:13;102733.19;;;4.43;100.00
46211;BME280;52144;48.040;-1.594;2023-02-13T07:07:42;102741.06;;;4.36;100.00
46211;BME280;52144;48.040;-1.594;2023-02-13T07:10:11;102749.28;;;4.62;100.00
46211;BME280;52144;48.040;-1.594;2023-02-13T07:12:39;102761.34;;;4.41;100.00
46211;BME280;52144;48.040;-1.594;2023-02-13T07:15:09;102763.13;;;4.42;100.00
46211;BME280;52144;48.040;-1.594;2023-02-13T07:17:37;102759.22;;;4.13;100.00
46211;BME280;52144;48.040;-1.594;2023-02-13T07:20:06;102760.50;;;4.46;100.00
46211;BME280;52144;48.040;-1.594;2023-02-13T07:22:35;102758.19;;;4.01;100.00
46211;BME280;52144;48.040;-1.594;2023-02-13T07:25:02;102764.47;;;4.10;100.00
46211;BME280;52144;48.040;-1.594;2023-02-13T07:27:30;102768.00;;;4.12;100.00
46211;BME280;52144;48.040;-1.594;2023-02-13T07:29:58;102767.38;;;4.30;100.00
46211;BME280;52144;48.040;-1.594;2023-02-13T07:32:27;102769.25;;;4.41;100.00
46211;BME280;52144;48.040;-1.594;2023-02-13T07:34:55;102778.84;;;4.32;100.00
46211;BME280;52144;48.040;-1.594;2023-02-13T07:37:28;102784.19;;;4.39;100.00
46211;BME280;52144;48.040;-1.594;2023-02-13T07:39:56;102775.50;;;4.48;100.00
46211;BME280;52144;48.040;-1.594;2023-02-13T07:42:24;102784.84;;;4.21;100.00
46211;BME280;52144;48.040;-1.594;2023-02-13T07:44:52;102780.41;;;4.17;100.00
46211;BME280;52144;48.040;-1.594;2023-02-13T07:47:20;102786.84;;;3.77;100.00
46211;BME280;52144;48.040;-1.594;2023-02-13T07:49:49;102782.22;;;4.23;100.00
46211;BME280;52144;48.040;-1.594;2023-02-13T07:52:17;102782.19;;;4.20;100.00
46211;BME280;52144;48.040;-1.594;2023-02-13T07:54:45;102784.41;;;3.89;100.00
46211;BME280;52144;48.040;-1.594;2023-02-13T07:57:14;102783.22;;;4.30;100.00
46211;BME280;52144;48.040;-1.594;2023-02-13T07:59:42;102781.97;;;4.05;100.00
46211;BME280;52144;48.040;-1.594;2023-02-13T08:02:10;102784.00;;;4.24;100.00
46211;BME280;52144;48.040;-1.594;2023-02-13T08:04:39;102789.38;;;4.33;100.00
46211;BME280;52144;48.040;-1.594;2023-02-13T08:07:13;102781.25;;;4.16;100.00
46211;BME280;52144;48.040;-1.594;2023-02-13T08:09:43;102795.19;;;4.06;100.00
46211;BME280;52144;48.040;-1.594;2023-02-13T08:12:28;102790.38;;;4.40;100.00
46211;BME280;52144;48.040;-1.594;2023-02-13T08:14:56;102785.09;;;4.41;100.00
46211;BME280;52144;48.040;-1.594;2023-02-13T08:17:24;102789.13;;;4.15;100.00
46211;BME280;52144;48.040;-1.594;2023-02-13T08:19:52;102790.59;;;3.91;100.00
46211;BME280;52144;48.040;-1.594;2023-02-13T08:22:21;102792.69;;;4.17;100.00
46211;BME280;52144;48.040;-1.594;2023-02-13T08:24:49;102790.78;;;4.07;100.00
46211;BME280;52144;48.040;-1.594;2023-02-13T08:27:17;102800.53;;;4.09;100.00
46211;BME280;52144;48.040;-1.594;2023-02-13T08:29:45;102793.41;;;4.04;100.00
46211;BME280;52144;48.040;-1.594;2023-02-13T08:32:13;102798.78;;;4.13;100.00
46211;BME280;52144;48.040;-1.594;2023-02-13T08:34:41;102802.13;;;3.99;100.00
46211;BME280;52144;48.040;-1.594;2023-02-13T08:37:09;102792.06;;;4.35;100.00
46211;BME280;52144;48.040;-1.594;2023-02-13T08:39:38;102789.88;;;4.73;100.00
46211;BME280;52144;48.040;-1.594;2023-02-13T08:42:06;102796.88;;;4.68;100.00
46211;BME280;52144;48.040;-1.594;2023-02-13T08:44:33;102796.97;;;4.74;100.00
46211;BME280;52144;48.040;-1.594;2023-02-13T08:47:02;102791.88;;;4.93;100.00
46211;BME280;52144;48.040;-1.594;2023-02-13T08:49:30;102796.97;;;4.77;100.00
46211;BME280;52144;48.040;-1.594;2023-02-13T08:51:59;102799.63;;;4.79;100.00
46211;BME280;52144;48.040;-1.594;2023-02-13T08:54:27;102792.25;;;4.52;100.00
46211;BME280;52144;48.040;-1.594;2023-02-13T08:56:56;102793.44;;;4.75;100.00
46211;BME280;52144;48.040;-1.594;2023-02-13T08:59:24;102802.56;;;5.05;100.00
46211;BME280;52144;48.040;-1.594;2023-02-13T09:01:52;102805.50;;;4.55;100.00
46211;BME280;52144;48.040;-1.594;2023-02-13T09:04:20;102801.31;;;4.71;100.00
46211;BME280;52144;48.040;-1.594;2023-02-13T09:06:47;102804.56;;;4.51;100.00
46211;BME280;52144;48.040;-1.594;2023-02-13T09:09:15;102801.94;;;4.51;100.00
46211;BME280;52144;48.040;-1.594;2023-02-13T09:11:43;102809.84;;;4.51;100.00
46211;BME280;52144;48.040;-1.594;2023-02-13T09:14:12;102807.63;;;4.85;100.00
46211;BME280;52144;48.040;-1.594;2023-02-13T09:16:40;102813.00;;;4.93;100.00
46211;BME280;52144;48.040;-1.594;2023-02-13T09:19:08;102816.28;;;4.72;100.00
46211;BME280;52144;48.040;-1.594;2023-02-13T09:21:35;102816.56;;;4.95;100.00
46211;BME280;52144;48.040;-1.594;2023-02-13T09:24:06;102812.34;;;5.17;100.00
46211;BME280;52144;48.040;-1.594;2023-02-13T09:26:34;102806.75;;;4.86;100.00
46211;BME280;52144;48.040;-1.594;2023-02-13T09:29:01;102805.84;;;4.84;100.00
46211;BME280;52144;48.040;-1.594;2023-02-13T09:31:31;102813.34;;;5.27;100.00
46211;BME280;52144;48.040;-1.594;2023-02-13T09:33:58;102814.50;;;4.69;100.00
46211;BME280;52144;48.040;-1.594;2023-02-13T09:36:26;102812.72;;;4.68;100.00
46211;BME280;52144;48.040;-1.594;2023-02-13T09:38:56;102817.72;;;5.21;100.00
46211;BME280;52144;48.040;-1.594;2023-02-13T09:41:26;102816.19;;;5.51;100.00
46211;BME280;52144;48.040;-1.594;2023-02-13T09:43:57;102823.66;;;5.97;100.00
46211;BME280;52144;48.040;-1.594;2023-02-13T09:46:29;102813.94;;;5.96;98.50
46211;BME280;52144;48.040;-1.594;2023-02-13T09:49:03;102824.69;;;6.19;98.70
46211;BME280;52144;48.040;-1.594;2023-02-13T09:51:34;102825.47;;;6.02;99.69
46211;BME280;52144;48.040;-1.594;2023-02-13T09:54:04;102819.50;;;6.43;98.48
46211;BME280;52144;48.040;-1.594;2023-02-13T09:56:39;102814.16;;;6.31;97.97
46211;BME280;52144;48.040;-1.594;2023-02-13T09:59:17;102830.31;;;5.50;100.00
46211;BME280;52144;48.040;-1.594;2023-02-13T10:01:51;102818.13;;;5.74;100.00
46211;BME280;52144;48.040;-1.594;2023-02-13T10:04:29;102824.59;;;6.07;99.82
46211;BME280;52144;48.040;-1.594;2023-02-13T10:07:09;102823.44;;;5.71;100.00
46211;BME280;52144;48.040;-1.594;2023-02-13T10:09:44;102825.34;;;5.92;100.00
46211;BME280;52144;48.040;-1.594;2023-02-13T10:12:45;102813.22;;;6.26;100.00
46211;BME280;52144;48.040;-1.594;2023-02-13T10:15:22;102819.56;;;6.56;98.20
46211;BME280;52144;48.040;-1.594;2023-02-13T10:17:57;102822.06;;;6.25;98.93
46211;BME280;52144;48.040;-1.594;2023-02-13T10:20:31;102817.78;;;6.55;99.07
46211;BME280;52144;48.040;-1.594;2023-02-13T10:23:17;102814.22;;;6.43;98.31
46211;BME280;52144;48.040;-1.594;2023-02-13T10:25:51;102810.66;;;6.43;99.93
46211;BME280;52144;48.040;-1.594;2023-02-13T10:28:30;102803.72;;;6.73;99.30
46211;BME280;52144;48.040;-1.594;2023-02-13T10:31:04;102804.63;;;6.79;98.08
46211;BME280;52144;48.040;-1.594;2023-02-13T10:33:38;102813.53;;;7.03;97.16
46211;BME280;52144;48.040;-1.594;2023-02-13T10:36:18;102802.97;;;7.38;95.34
46211;BME280;52144;48.040;-1.594;2023-02-13T10:38:55;102812.72;;;7.29;94.96
46211;BME280;52144;48.040;-1.594;2023-02-13T10:41:26;102807.34;;;7.10;94.82
46211;BME280;52144;48.040;-1.594;2023-02-13T10:44:09;102804.75;;;7.32;95.18
46211;BME280;52144;48.040;-1.594;2023-02-13T10:46:48;102803.84;;;7.48;94.03
46211;BME280;52144;48.040;-1.594;2023-02-13T10:49:34;102810.94;;;7.58;94.74
46211;BME280;52144;48.040;-1.594;2023-02-13T10:52:16;102809.94;;;8.32;92.32
46211;BME280;52144;48.040;-1.594;2023-02-13T10:55:01;102801.88;;;8.67;91.06
46211;BME280;52144;48.040;-1.594;2023-02-13T10:57:42;102806.28;;;8.70;88.36
46211;BME280;52144;48.040;-1.594;2023-02-13T11:00:17;102803.69;;;8.53;89.39
46211;BME280;52144;48.040;-1.594;2023-02-13T11:02:45;102811.66;;;8.59;89.47
46211;BME280;52144;48.040;-1.594;2023-02-13T11:05:16;102814.44;;;7.93;92.58
46211;BME280;52144;48.040;-1.594;2023-02-13T11:07:47;102819.78;;;7.36;93.66
46211;BME280;52144;48.040;-1.594;2023-02-13T11:10:17;102812.72;;;7.56;96.27
46211;BME280;52144;48.040;-1.594;2023-02-13T11:12:45;102810.88;;;8.08;92.73
46211;BME280;52144;48.040;-1.594;2023-02-13T11:15:23;102807.41;;;7.84;92.71
46211;BME280;52144;48.040;-1.594;2023-02-13T11:17:53;102804.75;;;7.76;93.45
46211;BME280;52144;48.040;-1.594;2023-02-13T11:20:28;102809.16;;;7.79;93.45
46211;BME280;52144;48.040;-1.594;2023-02-13T11:23:16;102801.09;;;8.23;92.71
46211;BME280;52144;48.040;-1.594;2023-02-13T11:25:54;102801.94;;;8.46;91.68
46211;BME280;52144;48.040;-1.594;2023-02-13T11:28:24;102793.94;;;8.49;91.72
46211;BME280;52144;48.040;-1.594;2023-02-13T11:31:08;102789.44;;;8.75;91.24
46211;BME280;52144;48.040;-1.594;2023-02-13T11:33:37;102791.41;;;8.15;92.69
46211;BME280;52144;48.040;-1.594;2023-02-13T11:36:07;102794.81;;;8.60;91.17
46211;BME280;52144;48.040;-1.594;2023-02-13T11:38:36;102789.28;;;8.98;88.52
46211;BME280;52144;48.040;-1.594;2023-02-13T11:41:07;102783.06;;;9.04;88.33
46211;BME280;52144;48.040;-1.594;2023-02-13T11:43:42;102787.44;;;9.08;89.41
46211;BME280;52144;48.040;-1.594;2023-02-13T11:46:17;102780.44;;;8.95;90.20
46211;BME280;52144;48.040;-1.594;2023-02-13T11:49:00;102779.91;;;9.64;87.47
46211;BME280;52144;48.040;-1.594;2023-02-13T11:51:37;102780.47;;;9.97;88.06
46211;BME280;52144;48.040;-1.594;2023-02-13T11:54:21;102768.38;;;10.46;83.81
46211;BME280;52144;48.040;-1.594;2023-02-13T11:56:53;102763.53;;;10.06;86.67
46211;BME280;52144;48.040;-1.594;2023-02-13T11:59:40;102764.66;;;9.80;87.16
46211;BME280;52144;48.040;-1.594;2023-02-13T12:02:17;102767.69;;;9.43;89.73
46211;BME280;52144;48.040;-1.594;2023-02-13T12:04:47;102763.06;;;9.65;88.03
46211;BME280;52144;48.040;-1.594;2023-02-13T12:07:19;102761.72;;;10.08;86.89
46211;BME280;52144;48.040;-1.594;2023-02-13T12:09:54;102755.22;;;10.32;87.11
46211;BME280;52144;48.040;-1.594;2023-02-13T12:12:28;102754.69;;;10.75;86.53
46211;BME280;52144;48.040;-1.594;2023-02-13T12:15:01;102752.44;;;10.42;84.07
46211;BME280;52144;48.040;-1.594;2023-02-13T12:17:31;102751.44;;;10.53;85.58
46211;BME280;52144;48.040;-1.594;2023-02-13T12:20:01;102753.81;;;10.73;84.50
46211;BME280;52144;48.040;-1.594;2023-02-13T12:22:31;102747.66;;;11.27;81.76
46211;BME280;52144;48.040;-1.594;2023-02-13T12:25:24;102745.09;;;11.20;81.44
46211;BME280;52144;48.040;-1.594;2023-02-13T12:28:11;102743.69;;;10.95;83.22
46211;BME280;52144;48.040;-1.594;2023-02-13T12:30:59;102740.34;;;10.82;85.10
46211;BME280;52144;48.040;-1.594;2023-02-13T12:33:59;102734.53;;;11.11;84.05
46211;BME280;52144;48.040;-1.594;2023-02-13T12:36:38;102724.69;;;10.57;87.26
46211;BME280;52144;48.040;-1.594;2023-02-13T12:39:17;102733.25;;;10.81;86.73
46211;BME280;52144;48.040;-1.594;2023-02-13T12:41:53;102719.56;;;11.04;85.94
46211;BME280;52144;48.040;-1.594;2023-02-13T12:44:47;102717.22;;;11.38;84.12
46211;BME280;52144;48.040;-1.594;2023-02-13T12:47:20;102714.66;;;11.31;85.30
46211;BME280;52144;48.040;-1.594;2023-02-13T12:50:11;102719.91;;;11.37;83.54
46211;BME280;52144;48.040;-1.594;2023-02-13T12:52:46;102707.38;;;11.42;85.05
46211;BME280;52144;48.040;-1.594;2023-02-13T12:55:27;102709.41;;;11.76;82.95
46211;BME280;52144;48.040;-1.594;2023-02-13T12:58:11;102711.56;;;11.55;84.48
46211;BME280;52144;48.040;-1.594;2023-02-13T13:00:48;102696.78;;;11.84;82.33
46211;BME280;52144;48.040;-1.594;2023-02-13T13:03:27;102704.72;;;12.32;81.81
46211;BME280;52144;48.040;-1.594;2023-02-13T13:06:09;102704.47;;;12.44;80.52
46211;BME280;52144;48.040;-1.594;2023-02-13T13:09:01;102691.03;;;12.06;83.20
46211;BME280;52144;48.040;-1.594;2023-02-13T13:11:48;102685.75;;;12.02;81.55
46211;BME280;52144;48.040;-1.594;2023-02-13T13:14:27;102685.16;;;12.30;82.37